Friday, August 01, 2014
16:01 UTC
  |  Log In   |  Register Free
Airport Search:

Pedro Bay Airport
(4K0)

Pedro Bay Airport Diagram
No Airport Diagram Available

FAA data valid effective July 24, 2014 until September 18, 2014 (unless otherwise noted).

 
 
 
 
 
 
 
 
 
 
 
 
 
 

Current Aviation Weather for Pedro Bay Airport (4K0)

The most recent METAR observation for PAIL was updated at: 1853 UTC
METAR Summary (Translated METAR)
PAIL
281853Z 00000KT 7SM -RA FEW017 BKN036 OVC046 13/13 A3008 RMK AO2 RAB1754 SLP186 P0002 T01280128
PAIG
(39.7 nm SW from PAIL)
281756Z AUTO 20010KT 10SM FEW014 OVC050 12/11 A3007 RMK AO2 TSNO 58004 60000 T01220105 10133 20116 RAB00E44 P0000 SLP185 $
TAF Summary (Translated TAF)
PAIL
011146Z 0112/0212 VRB03KT P6SM BKN120 BKN200 FM012100 16011KT P6SM BKN100 FM020600 VRB06KT P6SM BKN060
  Airport Weather Conditions for 4K0

Current weather conditions are
not available for 4K0


The nearest NOAA weather station
is at ILI, (23.7 nm SW from 4K0)
  
 Current Weather at ILI
51° F
Fair
Northwest winds at 3.5 mph
ILI NOAA Radar

Pressure: 30.27 in
Humidity: 92%
Wind: Northwest at 3.5 MPH (3 KT)
Dew Point: 48.9°F
Visibility: 10.00 mi


Airport Weather Forecast for 4K0

Translated METAR and TAF for PAIL
Translated METAR for PAIL (1554 UTC 01 August 2014)
found at http://aviationweather.gov/adds/metars/
 
METAR text: PAIL 011453Z 33003KT 10SM CLR 11/09 A3027 RMK AO2 SLP250 T01060094 56004
Conditions at: PAIL (ILIAMNA , AK, US) observed 1453 UTC 01 August 2014
Temperature: 10.6°C (51°F)
Dewpoint: 9.4°C (49°F) [RH = 92%]
Pressure (altimeter): 30.27 inches Hg (1025.1 mb)
[Sea-level pressure: 1025.0 mb]
Winds: from the NNW (330 degrees) at 3 MPH (3 knots; 1.6 m/s)
Visibility: 10 or more miles (16+ km)
Ceiling: at least 12,000 feet AGL
Clouds: sky clear below 12,000 feet AGL
Weather: no significant weather observed at this time
Translated TAF for PAIL
Forecast for: PAIL (ILIAMNA , AK, US)
TAF Text: PAIL 011146Z 0112/0212 VRB03KT P6SM BKN120 BKN200
Forecast period: 1200 to 2100 UTC 01 August 2014
Forecast type: FROM: standard forecast or significant change
Winds: variable direction winds at 3 MPH (3 knots; 1.6 m/s)
Visibility: 6 or more miles (10+ km)
Ceiling: 12000 feet AGL
Clouds: broken clouds at 12000 feet AGL
broken clouds at 20000 feet AGL
Weather: no significant weather forecast for this period
TAF Text: FM012100 16011KT P6SM BKN100
Forecast period: 2100 UTC 01 August 2014 to 0600 UTC 02 August 2014
Forecast type: FROM: standard forecast or significant change
Winds: from the SSE (160 degrees) at 13 MPH (11 knots; 5.7 m/s)
Visibility: 6 or more miles (10+ km)
Ceiling: 10000 feet AGL
Clouds: broken clouds at 10000 feet AGL
Weather: no significant weather forecast for this period
TAF Text: FM020600 VRB06KT P6SM BKN060
Forecast period: 0600 to 1200 UTC 02 August 2014
Forecast type: FROM: standard forecast or significant change
Winds: variable direction winds at 7 MPH (6 knots; 3.1 m/s)
Visibility: 6 or more miles (10+ km)
Ceiling: 6000 feet AGL
Clouds: broken clouds at 6000 feet AGL
Weather: no significant weather forecast for this period

Find All Airport Services Find A Hotel Find A Rental Car Find A Golf Course Find A Restaurant $100 Hamburger



FBO's on the Field
FBO Company Facility Photos Services Transportation Aviation Fuel Prices: Prices include tax
Catering Weather Repair Courtesy Rental Type 100LL JetA JetA+ MOGAS 8087
 
Add another FBO Facility Photos Catering Weather Repair Courtesy Rental Type 100LL JetA JetA+ MOGAS 8087
Services Transportation Aviation Fuel Prices: Prices include tax
There are no FBO's currently reporting fuel at 4K0. List your FBO now


GlobalAir.com Airport Resource Center model-print
model-print
model-print
model-print